Time;durP1;ratioP1;P1;durP2;ratioP2;P2;SDS_P1;SDS_P2;PMS_P1;PMS_P2;Temp;Humidity;BMP_temperature;BMP_pressure;BME280_temperature;BME280_humidity;BME280_pressure;Samples;Min_cycle;Max_cycle;Signal;HPM_P1;HPM_P2
2023/04/08 00:01:49;;;;;;;18.07;15.30;;;2.50;99.90;;;;;;4881766;29;20247;-74
2023/04/08 00:04:17;;;;;;;17.53;15.43;;;2.50;99.90;;;;;;4882117;29;20344;-75
2023/04/08 00:06:45;;;;;;;16.87;15.07;;;2.50;99.90;;;;;;4882262;29;20210;-76
2023/04/08 00:09:13;;;;;;;17.93;15.43;;;2.50;99.90;;;;;;4900148;29;20312;-75
2023/04/08 00:11:41;;;;;;;18.63;16.30;;;2.50;99.90;;;;;;4900512;29;20265;-74
2023/04/08 00:14:09;;;;;;;17.40;15.47;;;2.50;99.90;;;;;;4900568;29;20209;-75
2023/04/08 00:16:37;;;;;;;17.33;14.93;;;2.50;99.90;;;;;;4892288;29;20221;-76
2023/04/08 00:19:07;;;;;;;18.00;15.50;;;2.50;99.90;;;;;;4886654;29;20632;-74
2023/04/08 00:21:35;;;;;;;17.43;15.13;;;2.60;99.90;;;;;;4882190;29;20214;-74
2023/04/08 00:24:03;;;;;;;18.13;15.13;;;2.60;99.90;;;;;;4881021;29;20716;-75
2023/04/08 00:26:31;;;;;;;19.63;15.60;;;2.60;99.90;;;;;;4881558;29;20223;-75
2023/04/08 00:28:59;;;;;;;19.43;16.30;;;2.70;99.90;;;;;;4881839;29;20301;-75
2023/04/08 00:31:27;;;;;;;18.57;15.33;;;2.70;99.90;;;;;;4881699;29;20220;-75
2023/04/08 00:33:56;;;;;;;17.03;15.10;;;2.70;99.90;;;;;;4881256;29;20215;-73
2023/04/08 00:36:26;;;;;;;21.90;15.33;;;2.70;99.90;;;;;;4881133;29;20583;-74
2023/04/08 00:38:55;;;;;;;18.90;16.20;;;2.70;99.90;;;;;;4881436;29;20736;-74
2023/04/08 00:41:23;;;;;;;18.97;15.27;;;2.80;99.90;;;;;;4881469;29;20653;-74
2023/04/08 00:43:52;;;;;;;19.27;16.40;;;2.80;99.90;;;;;;4881406;29;20234;-73
2023/04/08 00:46:21;;;;;;;18.80;16.10;;;2.80;99.90;;;;;;4881679;29;20214;-75
2023/04/08 00:48:50;;;;;;;17.47;15.23;;;2.80;99.90;;;;;;4881603;29;20222;-74
2023/04/08 00:51:19;;;;;;;17.97;15.37;;;2.80;99.90;;;;;;4881625;29;20214;-74
2023/04/08 00:53:48;;;;;;;18.10;15.60;;;2.80;99.90;;;;;;4881021;29;20213;-73
2023/04/08 00:56:16;;;;;;;17.73;15.13;;;2.90;99.90;;;;;;4881076;29;20218;-75
2023/04/08 00:58:44;;;;;;;17.90;14.77;;;2.90;99.90;;;;;;4904494;29;20686;-75
2023/04/08 01:01:19;;;;;;;16.40;14.70;;;3.00;99.90;;;;;;4891807;29;20224;-73
2023/04/08 01:03:54;;;;;;;18.53;15.37;;;3.00;99.90;;;;;;4880835;29;20289;-74
2023/04/08 01:06:30;;;;;;;16.13;14.43;;;3.10;99.90;;;;;;4880297;29;20672;-74
2023/04/08 01:09:00;;;;;;;16.73;14.70;;;3.10;99.90;;;;;;4881219;29;20213;-75
2023/04/08 01:11:31;;;;;;;16.67;14.87;;;3.20;99.90;;;;;;4881088;29;20242;-74
2023/04/08 01:14:00;;;;;;;16.63;14.83;;;3.30;99.90;;;;;;4883014;29;20664;-75
2023/04/08 01:16:29;;;;;;;15.93;14.23;;;3.30;99.90;;;;;;4898794;29;20218;-75
2023/04/08 01:18:57;;;;;;;15.90;14.23;;;3.40;99.90;;;;;;4881023;29;20644;-74
2023/04/08 01:21:26;;;;;;;17.13;15.07;;;3.40;99.90;;;;;;4880486;29;20214;-75
2023/04/08 01:24:05;;;;;;;18.93;15.00;;;3.50;99.90;;;;;;4879847;29;20245;-74
2023/04/08 01:26:36;;;;;;;17.67;15.20;;;3.50;99.90;;;;;;4880815;29;20312;-73
2023/04/08 01:29:05;;;;;;;16.77;14.97;;;3.60;99.90;;;;;;4880695;29;20297;-76
2023/04/08 01:31:33;;;;;;;18.77;14.77;;;3.60;99.90;;;;;;4880476;29;20221;-75
2023/04/08 01:34:05;;;;;;;16.63;14.87;;;3.60;99.90;;;;;;4879554;29;20564;-75
2023/04/08 01:36:35;;;;;;;17.43;14.50;;;3.60;99.90;;;;;;4880040;29;20637;-74
2023/04/08 01:39:05;;;;;;;17.93;14.63;;;3.60;99.90;;;;;;4880265;29;20209;-74
2023/04/08 01:41:37;;;;;;;16.07;14.37;;;3.70;99.90;;;;;;4880444;29;20214;-74
2023/04/08 01:44:06;;;;;;;19.07;15.00;;;3.70;99.90;;;;;;4880089;29;20233;-74
2023/04/08 01:46:35;;;;;;;18.93;15.23;;;3.70;99.90;;;;;;4880236;29;20246;-75
2023/04/08 01:49:05;;;;;;;19.37;15.30;;;3.70;99.90;;;;;;4880047;29;20222;-75
2023/04/08 01:51:34;;;;;;;19.00;15.63;;;3.70;99.90;;;;;;4879938;29;20270;-75
2023/04/08 01:54:05;;;;;;;16.37;14.57;;;3.70;99.90;;;;;;4897990;29;20275;-73
2023/04/08 01:56:42;;;;;;;16.37;14.47;;;3.70;99.90;;;;;;4898998;29;20217;-75
2023/04/08 01:59:14;;;;;;;16.47;14.67;;;3.70;99.90;;;;;;4898534;29;20213;-75
2023/04/08 02:01:43;;;;;;;17.10;14.60;;;3.80;99.90;;;;;;4885069;29;20217;-74
2023/04/08 02:04:13;;;;;;;16.20;14.50;;;3.80;99.90;;;;;;4888136;29;20242;-75
2023/04/08 02:06:42;;;;;;;17.73;13.67;;;3.80;99.90;;;;;;4879800;29;20225;-74
2023/04/08 02:09:10;;;;;;;17.67;13.50;;;3.80;99.90;;;;;;4879934;29;20221;-76
2023/04/08 02:11:39;;;;;;;16.07;13.60;;;3.80;99.90;;;;;;4879754;29;20252;-75
2023/04/08 02:14:07;;;;;;;16.07;13.77;;;3.80;99.90;;;;;;4894266;29;20217;-75
2023/04/08 02:16:42;;;;;;;16.47;13.53;;;3.90;99.90;;;;;;4897522;29;20229;-75
2023/04/08 02:19:15;;;;;;;14.57;12.77;;;3.90;99.90;;;;;;4892846;29;20633;-76
2023/04/08 02:21:46;;;;;;;15.63;13.17;;;3.90;99.90;;;;;;4879396;29;20213;-75
2023/04/08 02:24:17;;;;;;;15.57;13.30;;;3.90;99.90;;;;;;4879700;29;20222;-75
2023/04/08 02:26:50;;;;;;;14.33;12.80;;;3.90;99.90;;;;;;4879797;29;20262;-75
2023/04/08 02:29:19;;;;;;;16.47;12.77;;;3.90;99.90;;;;;;4879233;29;20221;-75
2023/04/08 02:31:48;;;;;;;13.80;12.40;;;3.90;99.90;;;;;;4879266;29;20313;-74
2023/04/08 02:34:20;;;;;;;16.13;12.57;;;4.00;99.90;;;;;;4879163;29;20555;-73
2023/04/08 02:36:50;;;;;;;14.90;11.57;;;4.00;99.90;;;;;;4879424;29;20214;-75
2023/04/08 02:39:18;;;;;;;13.80;12.30;;;4.00;99.90;;;;;;4879214;29;20277;-75
2023/04/08 02:41:47;;;;;;;14.07;12.50;;;4.00;99.90;;;;;;4878930;29;20732;-75
2023/04/08 02:44:15;;;;;;;15.90;12.47;;;4.00;99.90;;;;;;4879098;29;20594;-75
2023/04/08 02:46:43;;;;;;;15.47;12.50;;;4.00;99.90;;;;;;4879623;29;20264;-75
2023/04/08 02:49:11;;;;;;;13.40;12.10;;;4.00;99.90;;;;;;4878913;29;20224;-75
2023/04/08 02:51:39;;;;;;;13.13;11.70;;;4.00;99.90;;;;;;4878944;29;20585;-75
2023/04/08 02:54:08;;;;;;;14.87;12.33;;;4.00;99.90;;;;;;4880634;29;20241;-75
2023/04/08 02:56:36;;;;;;;14.23;12.33;;;3.90;99.90;;;;;;4879296;29;20309;-74
2023/04/08 02:59:05;;;;;;;14.57;12.67;;;3.90;99.90;;;;;;4879276;29;20214;-75
2023/04/08 03:01:33;;;;;;;13.57;11.60;;;3.90;99.90;;;;;;4878957;29;20210;-74
2023/04/08 03:04:01;;;;;;;14.00;12.47;;;3.90;99.90;;;;;;4894606;29;20241;-74
2023/04/08 03:06:30;;;;;;;14.00;12.33;;;3.80;99.90;;;;;;4897703;29;20253;-75
2023/04/08 03:08:58;;;;;;;14.50;12.90;;;3.80;99.90;;;;;;4898383;29;20501;-75
2023/04/08 03:11:26;;;;;;;13.37;11.97;;;3.80;99.90;;;;;;4897142;29;20247;-75
2023/04/08 03:13:54;;;;;;;16.17;12.83;;;3.70;99.90;;;;;;4890494;29;20214;-75
2023/04/08 03:16:23;;;;;;;15.17;12.20;;;3.70;99.90;;;;;;4878657;29;20228;-76
2023/04/08 03:18:52;;;;;;;14.23;12.73;;;3.70;99.90;;;;;;4878869;29;20222;-74
2023/04/08 03:21:20;;;;;;;15.57;12.73;;;3.70;99.90;;;;;;4878547;29;20695;-75
2023/04/08 03:23:48;;;;;;;16.03;12.70;;;3.60;99.90;;;;;;4891704;29;20221;-74
2023/04/08 03:26:16;;;;;;;15.10;13.07;;;3.60;99.90;;;;;;4898081;29;20213;-75
2023/04/08 03:28:44;;;;;;;14.33;12.83;;;3.50;99.90;;;;;;4896766;29;20218;-74
2023/04/08 03:31:13;;;;;;;15.13;13.43;;;3.50;99.90;;;;;;4882526;29;20248;-75
2023/04/08 03:33:42;;;;;;;15.77;13.23;;;3.50;99.90;;;;;;4878470;29;20218;-74
2023/04/08 03:36:11;;;;;;;15.63;12.77;;;3.50;99.90;;;;;;4878817;29;20217;-75
2023/04/08 03:38:39;;;;;;;17.57;13.60;;;3.40;99.90;;;;;;4878671;29;20325;-75
2023/04/08 03:41:07;;;;;;;16.70;13.70;;;3.40;99.90;;;;;;4888587;29;20218;-76
2023/04/08 03:43:35;;;;;;;14.47;12.97;;;3.40;99.90;;;;;;4883583;29;20241;-75
2023/04/08 03:46:05;;;;;;;15.70;13.37;;;3.40;99.90;;;;;;4878882;29;20278;-74
2023/04/08 03:48:33;;;;;;;17.87;13.43;;;3.40;99.90;;;;;;4878496;29;20220;-73
2023/04/08 03:51:02;;;;;;;15.37;13.67;;;3.40;99.90;;;;;;4880148;29;20245;-75
2023/04/08 03:53:30;;;;;;;16.27;13.73;;;3.40;99.90;;;;;;4878497;29;20214;-75
2023/04/08 03:55:58;;;;;;;15.57;13.43;;;3.50;99.90;;;;;;4878399;29;20206;-75
2023/04/08 03:58:26;;;;;;;16.43;13.77;;;3.50;99.90;;;;;;4878167;29;20247;-76
2023/04/08 04:00:54;;;;;;;17.87;14.13;;;3.50;99.90;;;;;;4895568;29;20229;-74
2023/04/08 04:03:22;;;;;;;15.43;13.77;;;3.40;99.90;;;;;;4896931;29;20228;-73
2023/04/08 04:05:51;;;;;;;14.93;13.20;;;3.50;99.90;;;;;;4896500;29;20233;-74
2023/04/08 04:08:21;;;;;;;15.37;13.73;;;3.50;99.90;;;;;;4882246;29;20226;-75
2023/04/08 04:10:49;;;;;;;18.30;14.30;;;3.50;99.90;;;;;;4888387;29;20237;-73
2023/04/08 04:13:18;;;;;;;16.77;14.80;;;3.50;99.90;;;;;;4896567;29;20202;-74
2023/04/08 04:15:46;;;;;;;18.73;14.80;;;3.50;99.90;;;;;;4888961;29;20212;-75
2023/04/08 04:18:14;;;;;;;16.40;14.20;;;3.60;99.90;;;;;;4878252;29;20274;-75
2023/04/08 04:20:43;;;;;;;16.20;14.43;;;3.60;99.90;;;;;;4878798;29;20214;-74
2023/04/08 04:23:11;;;;;;;17.03;14.37;;;3.60;99.90;;;;;;4877912;29;20223;-74
2023/04/08 04:25:43;;;;;;;17.97;14.33;;;3.60;99.90;;;;;;4878211;29;20243;-75
2023/04/08 04:28:11;;;;;;;17.37;14.83;;;3.60;99.90;;;;;;4878948;29;20247;-75
2023/04/08 04:30:39;;;;;;;17.73;14.77;;;3.70;99.90;;;;;;4878031;29;20229;-75
2023/04/08 04:33:08;;;;;;;16.27;14.57;;;3.70;99.90;;;;;;4878186;29;20225;-73
2023/04/08 04:35:36;;;;;;;16.93;14.57;;;3.70;99.90;;;;;;4878242;29;20211;-75
2023/04/08 04:38:06;;;;;;;17.77;14.60;;;3.70;99.90;;;;;;4877720;29;20221;-75
2023/04/08 04:40:35;;;;;;;16.83;14.97;;;3.70;99.90;;;;;;4879695;29;20198;-76
2023/04/08 04:43:04;;;;;;;18.27;15.17;;;3.80;99.90;;;;;;4881834;29;20221;-75
2023/04/08 04:45:33;;;;;;;19.83;16.20;;;3.70;99.90;;;;;;4881069;29;20230;-74
2023/04/08 04:48:02;;;;;;;19.43;15.93;;;3.80;99.90;;;;;;4881410;29;20266;-75
2023/04/08 04:50:30;;;;;;;19.27;15.37;;;3.80;99.90;;;;;;4881478;29;20211;-73
2023/04/08 04:52:58;;;;;;;18.13;15.53;;;3.80;99.90;;;;;;4881330;29;20245;-74
2023/04/08 04:55:26;;;;;;;19.73;15.60;;;3.80;99.90;;;;;;4881184;29;20214;-73
2023/04/08 04:57:54;;;;;;;18.70;15.37;;;3.80;99.90;;;;;;4880989;29;20319;-73
2023/04/08 05:00:24;;;;;;;18.13;15.33;;;3.90;99.90;;;;;;4880874;29;20217;-75
2023/04/08 05:02:52;;;;;;;18.80;15.93;;;3.90;99.90;;;;;;4880942;29;20220;-74
2023/04/08 05:05:20;;;;;;;18.77;16.10;;;3.90;99.90;;;;;;4881338;29;20239;-75
2023/04/08 05:07:50;;;;;;;17.23;15.43;;;3.90;99.90;;;;;;4881043;29;20293;-72
2023/04/08 05:10:18;;;;;;;19.00;16.23;;;4.00;99.90;;;;;;4892863;29;20684;-74
2023/04/08 05:12:46;;;;;;;19.03;16.03;;;4.00;99.90;;;;;;4880500;29;20230;-73
2023/04/08 05:15:14;;;;;;;18.20;15.97;;;4.00;99.90;;;;;;4880682;29;20551;-74
2023/04/08 05:17:44;;;;;;;20.43;16.00;;;4.00;99.90;;;;;;4880828;29;20218;-75
2023/04/08 05:20:12;;;;;;;18.40;15.90;;;4.00;99.90;;;;;;4880845;29;20213;-74
2023/04/08 05:22:44;;;;;;;20.00;15.83;;;4.00;99.90;;;;;;4880955;29;20483;-74
2023/04/08 05:25:12;;;;;;;42.40;34.40;;;4.00;99.90;;;;;;4880842;29;20324;-75
2023/04/08 05:27:40;;;;;;;25.47;22.40;;;4.00;99.90;;;;;;4880982;29;20213;-75
2023/04/08 05:30:09;;;;;;;20.17;17.63;;;4.10;99.90;;;;;;4880815;29;20311;-74
2023/04/08 05:32:37;;;;;;;18.77;16.53;;;4.10;99.90;;;;;;4880127;29;20303;-75
2023/04/08 05:35:08;;;;;;;18.30;16.30;;;4.10;99.90;;;;;;4880992;29;20218;-75
2023/04/08 05:37:36;;;;;;;18.20;16.30;;;4.10;99.90;;;;;;4880748;29;20218;-75
2023/04/08 05:40:05;;;;;;;20.20;17.10;;;4.20;99.90;;;;;;4880584;29;20317;-75
2023/04/08 05:42:33;;;;;;;20.10;17.70;;;4.20;99.90;;;;;;4880368;29;20214;-74
2023/04/08 05:45:01;;;;;;;22.23;18.80;;;4.20;99.90;;;;;;4880736;29;20210;-74
2023/04/08 05:47:30;;;;;;;30.23;27.27;;;4.20;99.90;;;;;;4880726;29;20293;-75
2023/04/08 05:49:58;;;;;;;24.33;21.20;;;4.30;99.90;;;;;;4881973;29;20218;-74
2023/04/08 05:52:27;;;;;;;19.67;17.60;;;4.30;99.90;;;;;;4880310;29;20262;-73
2023/04/08 05:54:55;;;;;;;22.20;19.80;;;4.40;99.90;;;;;;4898414;29;20213;-74
2023/04/08 05:57:23;;;;;;;20.43;18.27;;;4.30;99.90;;;;;;4899193;29;20363;-74
2023/04/08 05:59:52;;;;;;;19.73;17.73;;;4.40;99.90;;;;;;4891052;29;20622;-74
2023/04/08 06:02:20;;;;;;;18.87;16.87;;;4.60;99.90;;;;;;4880037;29;20209;-73
2023/04/08 06:04:48;;;;;;;19.77;17.00;;;4.60;99.90;;;;;;4880572;29;20218;-73
2023/04/08 06:07:16;;;;;;;19.00;15.63;;;4.60;99.90;;;;;;4885884;29;20281;-73
2023/04/08 06:09:45;;;;;;;17.00;15.20;;;4.60;99.90;;;;;;4884983;29;20243;-76
2023/04/08 06:12:14;;;;;;;19.47;15.70;;;4.70;99.90;;;;;;4880340;29;20246;-73
2023/04/08 06:14:42;;;;;;;19.20;16.13;;;4.70;99.90;;;;;;4887732;29;20313;-75
2023/04/08 06:17:10;;;;;;;20.10;18.10;;;4.80;99.90;;;;;;4880883;29;20210;-75
2023/04/08 06:19:38;;;;;;;19.60;17.60;;;4.90;99.90;;;;;;4879986;29;20218;-73
2023/04/08 06:22:06;;;;;;;16.97;15.17;;;5.00;99.90;;;;;;4879974;29;20216;-73
2023/04/08 06:24:35;;;;;;;17.87;15.97;;;5.00;99.90;;;;;;4879644;29;20236;-75
2023/04/08 06:27:05;;;;;;;17.70;15.73;;;5.10;99.90;;;;;;4879634;29;20230;-74
2023/04/08 06:29:33;;;;;;;16.73;14.67;;;5.20;99.90;;;;;;4879742;29;20245;-76
2023/04/08 06:32:01;;;;;;;17.67;15.37;;;5.20;99.90;;;;;;4879695;29;20309;-73
2023/04/08 06:34:29;;;;;;;21.30;17.13;;;5.30;99.90;;;;;;4879993;29;20217;-74
2023/04/08 06:36:58;;;;;;;21.33;17.10;;;5.30;99.90;;;;;;4880047;29;20329;-73
2023/04/08 06:39:26;;;;;;;18.57;16.63;;;5.20;99.90;;;;;;4879822;29;20215;-76
2023/04/08 06:41:54;;;;;;;18.80;16.80;;;5.20;99.90;;;;;;4880006;29;20331;-75
2023/04/08 06:44:24;;;;;;;18.70;15.57;;;5.20;99.90;;;;;;4879813;29;20300;-76
2023/04/08 06:46:52;;;;;;;20.00;16.17;;;5.30;99.90;;;;;;4879792;29;20240;-75
2023/04/08 06:49:20;;;;;;;19.47;16.20;;;5.30;99.90;;;;;;4879649;29;20229;-74
2023/04/08 06:51:49;;;;;;;19.10;15.80;;;5.40;99.90;;;;;;4879269;29;20432;-75
2023/04/08 06:54:17;;;;;;;17.73;15.73;;;5.40;99.90;;;;;;4879521;29;20305;-76
2023/04/08 06:56:45;;;;;;;19.47;16.63;;;5.50;99.90;;;;;;4879526;29;20582;-75
2023/04/08 06:59:15;;;;;;;18.33;16.33;;;5.40;99.90;;;;;;4879345;29;20305;-75
2023/04/08 07:01:45;;;;;;;19.47;16.00;;;5.40;99.90;;;;;;4878872;29;20214;-76
2023/04/08 07:04:13;;;;;;;19.60;17.60;;;5.50;99.90;;;;;;4879165;29;20198;-75
2023/04/08 07:06:41;;;;;;;20.27;18.07;;;5.50;99.90;;;;;;4891848;29;20237;-75
2023/04/08 07:09:09;;;;;;;20.33;18.13;;;5.50;99.90;;;;;;4899238;29;20302;-77
2023/04/08 07:11:37;;;;;;;19.90;17.80;;;5.60;99.90;;;;;;4881651;29;20604;-75
2023/04/08 07:14:06;;;;;;;20.63;17.83;;;5.60;99.90;;;;;;4878688;29;20577;-76
2023/04/08 07:16:34;;;;;;;23.67;20.33;;;5.70;99.90;;;;;;4879173;29;20236;-75
2023/04/08 07:19:04;;;;;;;21.50;19.13;;;5.70;99.90;;;;;;4879254;29;20218;-75
2023/04/08 07:21:32;;;;;;;19.77;17.17;;;5.70;99.90;;;;;;4879164;29;20241;-76
2023/04/08 07:23:59;;;;;;;18.03;16.13;;;5.60;99.90;;;;;;4878778;29;20591;-75
2023/04/08 07:26:28;;;;;;;18.77;16.87;;;5.50;99.90;;;;;;4878478;29;20282;-75
2023/04/08 07:28:56;;;;;;;18.47;16.00;;;5.50;99.90;;;;;;4879047;29;20262;-74
2023/04/08 07:31:24;;;;;;;19.60;16.03;;;5.50;99.90;;;;;;4879139;29;20635;-74
2023/04/08 07:33:52;;;;;;;19.60;17.30;;;5.50;99.90;;;;;;4881751;29;20214;-75
2023/04/08 07:36:22;;;;;;;18.97;16.93;;;5.60;99.90;;;;;;4878922;29;20578;-75
2023/04/08 07:38:50;;;;;;;21.03;17.37;;;5.60;99.90;;;;;;4878831;29;20233;-75
2023/04/08 07:41:19;;;;;;;19.50;16.17;;;5.70;99.90;;;;;;4878902;29;20241;-74
2023/04/08 07:43:47;;;;;;;19.23;17.13;;;5.70;99.90;;;;;;4878035;29;20225;-75
2023/04/08 07:46:15;;;;;;;19.70;16.70;;;5.70;99.90;;;;;;4878697;29;20218;-75
2023/04/08 07:48:43;;;;;;;17.40;14.63;;;5.70;99.90;;;;;;4878672;29;20688;-75
2023/04/08 07:51:12;;;;;;;17.53;14.83;;;5.70;99.90;;;;;;4878706;29;20632;-74
2023/04/08 07:53:41;;;;;;;18.00;14.77;;;5.60;99.90;;;;;;4878264;29;20272;-75
2023/04/08 07:56:13;;;;;;;16.63;13.60;;;5.60;99.90;;;;;;4879164;29;20261;-76
2023/04/08 07:58:42;;;;;;;16.63;14.83;;;5.40;99.90;;;;;;4878333;29;20302;-77
2023/04/08 08:01:18;;;;;;;15.03;13.00;;;5.40;99.90;;;;;;4878558;29;20309;-77
2023/04/08 08:03:47;;;;;;;14.80;12.73;;;5.30;99.90;;;;;;4878273;29;20672;-76
2023/04/08 08:06:16;;;;;;;16.63;13.30;;;5.20;99.90;;;;;;4898116;29;20223;-78
2023/04/08 08:08:46;;;;;;;17.67;14.43;;;5.10;99.90;;;;;;4881224;29;20238;-74
2023/04/08 08:11:14;;;;;;;16.53;14.37;;;5.10;99.90;;;;;;4879175;29;20252;-75
2023/04/08 08:13:42;;;;;;;15.93;13.57;;;5.00;99.90;;;;;;4878903;29;20297;-78
2023/04/08 08:16:10;;;;;;;16.50;14.70;;;4.90;99.90;;;;;;4883122;29;20261;-76
2023/04/08 08:18:40;;;;;;;21.53;18.87;;;5.00;99.90;;;;;;4883367;29;20239;-76
2023/04/08 08:21:08;;;;;;;16.13;14.17;;;5.10;99.90;;;;;;4882828;29;20221;-77
2023/04/08 08:23:37;;;;;;;15.30;13.60;;;5.20;99.90;;;;;;4882616;29;20214;-76
2023/04/08 08:26:08;;;;;;;15.67;13.70;;;5.30;99.90;;;;;;4900604;29;20232;-76
2023/04/08 08:28:37;;;;;;;15.57;13.70;;;5.40;99.90;;;;;;4900793;29;20240;-75
2023/04/08 08:31:05;;;;;;;16.30;13.60;;;5.50;99.90;;;;;;4900716;29;20221;-75
2023/04/08 08:33:34;;;;;;;15.47;13.40;;;5.50;99.90;;;;;;4895731;29;20221;-76
2023/04/08 08:36:03;;;;;;;14.27;12.67;;;5.50;99.90;;;;;;4883455;29;20216;-77
2023/04/08 08:38:32;;;;;;;16.90;12.97;;;5.60;99.90;;;;;;4882686;29;20206;-78
2023/04/08 08:41:02;;;;;;;14.83;12.93;;;5.70;99.90;;;;;;4883120;29;20300;-77
2023/04/08 08:43:33;;;;;;;15.83;13.30;;;5.70;99.90;;;;;;4881302;29;20210;-77
2023/04/08 08:46:01;;;;;;;14.73;13.13;;;5.80;99.90;;;;;;4881554;29;20649;-77
2023/04/08 08:48:29;;;;;;;15.83;13.57;;;5.80;99.90;;;;;;4881776;29;20244;-78
2023/04/08 08:50:58;;;;;;;16.17;13.43;;;5.90;99.90;;;;;;4881792;29;20210;-76
2023/04/08 08:53:29;;;;;;;14.70;13.17;;;6.00;99.90;;;;;;4880800;29;20650;-77
2023/04/08 08:56:01;;;;;;;15.37;12.27;;;6.10;99.90;;;;;;4881170;29;20198;-74
2023/04/08 08:58:33;;;;;;;13.90;12.43;;;6.00;99.90;;;;;;4881183;29;20642;-75
2023/04/08 09:01:01;;;;;;;14.77;13.17;;;6.00;99.90;;;;;;4881195;29;20243;-75
2023/04/08 09:03:29;;;;;;;16.87;14.17;;;6.20;99.90;;;;;;4889327;29;20209;-73
2023/04/08 09:05:59;;;;;;;15.13;13.07;;;6.30;99.90;;;;;;4900654;29;20252;-78
2023/04/08 09:08:32;;;;;;;15.17;12.53;;;6.40;99.90;;;;;;4899432;29;20229;-74
2023/04/08 09:11:15;;;;;;;14.00;12.53;;;6.60;99.90;;;;;;4900127;29;20245;-75
2023/04/08 09:13:46;;;;;;;13.90;12.33;;;6.60;99.90;;;;;;4899354;29;20252;-75
2023/04/08 09:16:16;;;;;;;17.00;14.63;;;6.70;99.90;;;;;;4900145;29;20583;-76
2023/04/08 09:18:47;;;;;;;15.77;13.30;;;6.70;99.90;;;;;;4883180;29;20203;-77
2023/04/08 09:21:17;;;;;;;14.30;12.80;;;6.80;99.90;;;;;;4881120;29;20230;-73
2023/04/08 09:23:47;;;;;;;12.87;11.57;;;6.70;99.90;;;;;;4880751;29;20225;-74
2023/04/08 09:26:18;;;;;;;10.63;8.97;;;6.40;99.90;;;;;;4880258;29;20244;-74
2023/04/08 09:29:00;;;;;;;10.43;9.33;;;6.30;99.90;;;;;;4880940;29;20679;-75
2023/04/08 09:31:41;;;;;;;11.93;9.80;;;6.20;99.90;;;;;;4880632;29;20669;-74
2023/04/08 09:34:14;;;;;;;11.33;10.13;;;6.10;99.90;;;;;;4893732;29;20244;-76
2023/04/08 09:36:43;;;;;;;12.30;11.00;;;6.10;99.90;;;;;;4900180;29;20277;-73
2023/04/08 09:39:11;;;;;;;12.20;10.90;;;6.10;99.90;;;;;;4899445;29;20698;-74
2023/04/08 09:41:40;;;;;;;16.87;11.53;;;6.10;99.90;;;;;;4897485;29;20745;-73
2023/04/08 09:44:11;;;;;;;12.77;11.47;;;6.20;99.90;;;;;;4880591;29;20214;-75
2023/04/08 09:46:47;;;;;;;13.80;11.77;;;6.30;99.90;;;;;;4880343;29;20319;-76
2023/04/08 09:49:23;;;;;;;13.27;11.97;;;6.30;99.90;;;;;;4880607;29;20214;-75
2023/04/08 09:51:59;;;;;;;13.63;12.23;;;6.40;99.90;;;;;;4880236;29;20202;-75
2023/04/08 09:54:37;;;;;;;14.77;12.83;;;6.40;99.90;;;;;;4880281;29;20221;-76
2023/04/08 09:57:11;;;;;;;15.30;13.70;;;6.40;99.90;;;;;;4880525;29;20210;-75
2023/04/08 09:59:48;;;;;;;15.90;14.30;;;6.30;99.90;;;;;;4892883;29;20214;-73
2023/04/08 10:02:24;;;;;;;15.80;14.20;;;6.10;99.90;;;;;;4898449;29;20217;-73
2023/04/08 10:04:54;;;;;;;16.20;13.93;;;6.20;99.90;;;;;;4898556;29;20292;-74
2023/04/08 10:07:23;;;;;;;15.10;13.50;;;6.00;99.90;;;;;;4893879;29;20215;-73
2023/04/08 10:09:52;;;;;;;12.93;10.80;;;5.80;99.90;;;;;;4880045;29;20689;-75
2023/04/08 10:12:20;;;;;;;9.50;8.50;;;5.80;99.90;;;;;;4879567;29;20243;-75
2023/04/08 10:15:21;;;;;;;7.90;7.10;;;5.70;99.90;;;;;;4879716;29;20310;-73
2023/04/08 10:17:52;;;;;;;7.53;6.60;;;5.80;99.90;;;;;;4879672;29;20210;-74
2023/04/08 10:20:43;;;;;;;7.57;6.87;;;5.60;99.90;;;;;;4880487;29;20270;-73
2023/04/08 10:23:13;;;;;;;7.17;6.47;;;5.60;99.90;;;;;;4879078;29;20225;-75
2023/04/08 10:25:42;;;;;;;7.13;5.90;;;5.70;99.90;;;;;;4885898;29;20573;-75
2023/04/08 10:28:26;;;;;;;6.70;5.97;;;5.50;99.90;;;;;;4879847;29;20284;-74
2023/04/08 10:30:56;;;;;;;7.10;5.97;;;5.70;99.90;;;;;;4879397;29;20673;-75
2023/04/08 10:33:33;;;;;;;6.93;6.17;;;5.60;99.90;;;;;;4879339;29;20680;-75
2023/04/08 10:36:10;;;;;;;6.80;5.80;;;5.60;99.90;;;;;;4879468;29;20688;-75
2023/04/08 10:38:38;;;;;;;6.90;5.83;;;5.40;99.90;;;;;;4878462;29;20560;-75
2023/04/08 10:41:07;;;;;;;6.90;6.03;;;5.50;99.90;;;;;;4879396;29;20214;-75
2023/04/08 10:43:36;;;;;;;7.17;6.40;;;5.40;99.90;;;;;;4878939;29;20270;-75
2023/04/08 10:46:05;;;;;;;6.97;6.27;;;5.40;99.90;;;;;;4879956;29;20305;-74
2023/04/08 10:48:34;;;;;;;7.50;6.70;;;5.40;99.90;;;;;;4879995;29;20234;-73
2023/04/08 10:51:04;;;;;;;6.93;6.23;;;5.30;99.90;;;;;;4880813;29;20645;-74
2023/04/08 10:53:33;;;;;;;6.77;6.07;;;5.20;99.90;;;;;;4880312;29;20221;-74
2023/04/08 10:56:06;;;;;;;7.03;6.33;;;5.20;99.90;;;;;;4879858;29;20248;-74
2023/04/08 10:58:35;;;;;;;6.67;6.07;;;5.20;99.90;;;;;;4879852;29;20210;-74
2023/04/08 11:01:05;;;;;;;7.30;6.20;;;5.20;99.90;;;;;;4892225;29;20304;-74
2023/04/08 11:03:36;;;;;;;7.13;6.43;;;5.20;99.90;;;;;;4898252;29;20237;-74
2023/04/08 11:06:06;;;;;;;7.03;6.30;;;5.30;99.90;;;;;;4898670;29;20568;-74
2023/04/08 11:08:35;;;;;;;7.33;6.57;;;5.50;99.90;;;;;;4898622;29;20237;-75
2023/04/08 11:11:07;;;;;;;7.67;6.77;;;5.60;99.90;;;;;;4885235;29;20270;-75
2023/04/08 11:13:36;;;;;;;10.63;8.30;;;5.70;99.90;;;;;;4879140;29;20301;-74
2023/04/08 11:16:07;;;;;;;6.73;6.03;;;5.60;99.90;;;;;;4879789;29;20252;-72
2023/04/08 11:18:46;;;;;;;7.20;6.50;;;5.70;99.90;;;;;;4880321;29;20595;-74
2023/04/08 11:21:16;;;;;;;8.17;7.37;;;5.50;99.90;;;;;;4880312;29;20216;-76
2023/04/08 11:23:44;;;;;;;8.87;7.30;;;5.40;99.90;;;;;;4879684;29;20216;-73
2023/04/08 11:26:13;;;;;;;8.87;7.97;;;5.40;99.90;;;;;;4886804;29;20257;-75
2023/04/08 11:28:42;;;;;;;10.97;9.70;;;5.30;99.90;;;;;;4893262;29;20230;-75
2023/04/08 11:31:11;;;;;;;8.33;7.53;;;5.30;99.90;;;;;;4912687;29;20216;-73
2023/04/08 11:33:47;;;;;;;8.53;7.73;;;5.30;99.90;;;;;;4897701;29;20221;-75
2023/04/08 11:36:18;;;;;;;9.83;8.83;;;5.30;99.90;;;;;;4897992;29;20205;-75
2023/04/08 11:38:47;;;;;;;11.80;10.23;;;5.30;99.90;;;;;;4896024;29;20190;-74
2023/04/08 11:41:16;;;;;;;11.70;10.50;;;5.30;99.90;;;;;;4879028;29;20214;-74
2023/04/08 11:43:57;;;;;;;12.23;10.27;;;5.30;99.90;;;;;;4878493;29;20217;-75
2023/04/08 11:46:25;;;;;;;11.83;10.63;;;5.30;99.90;;;;;;4878909;29;20253;-75
2023/04/08 11:49:06;;;;;;;14.13;11.53;;;5.30;99.90;;;;;;4880303;29;20230;-74
2023/04/08 11:51:36;;;;;;;13.67;11.60;;;5.20;99.90;;;;;;4885174;29;20198;-74
2023/04/08 11:54:06;;;;;;;13.90;12.47;;;5.20;99.90;;;;;;4884821;29;20214;-75
2023/04/08 11:56:45;;;;;;;13.00;11.63;;;5.10;99.90;;;;;;4884805;29;20221;-76
2023/04/08 11:59:14;;;;;;;15.00;13.50;;;5.10;99.90;;;;;;4889877;29;20664;-74
2023/04/08 12:01:43;;;;;;;15.50;13.90;;;5.20;99.90;;;;;;4884826;29;20216;-74
2023/04/08 12:04:13;;;;;;;13.77;12.30;;;5.20;99.90;;;;;;4884438;29;20716;-74
2023/04/08 12:06:42;;;;;;;14.57;13.07;;;5.30;99.90;;;;;;4884652;29;20214;-74
2023/04/08 12:09:10;;;;;;;13.57;12.27;;;5.40;99.90;;;;;;4901716;29;20233;-74
2023/04/08 12:11:38;;;;;;;16.50;14.80;;;5.30;99.90;;;;;;4905255;29;20241;-75
2023/04/08 12:14:06;;;;;;;12.40;11.20;;;5.20;99.90;;;;;;4903287;29;20216;-74
2023/04/08 12:16:35;;;;;;;13.57;12.17;;;5.00;99.90;;;;;;4890401;29;20214;-75
2023/04/08 12:19:03;;;;;;;14.43;12.90;;;5.00;99.90;;;;;;4884913;29;20261;-75
2023/04/08 12:21:32;;;;;;;13.80;12.37;;;5.00;99.90;;;;;;4884746;29;20214;-74
2023/04/08 12:24:00;;;;;;;13.63;12.33;;;4.90;99.90;;;;;;4884010;29;20231;-75
2023/04/08 12:26:28;;;;;;;24.73;13.23;;;4.90;99.90;;;;;;4884803;29;20225;-75
2023/04/08 12:28:57;;;;;;;16.10;14.37;;;4.90;99.90;;;;;;4885132;29;20221;-74
2023/04/08 12:31:26;;;;;;;13.10;11.80;;;4.90;99.90;;;;;;4884846;29;20249;-76
2023/04/08 12:33:54;;;;;;;13.53;12.13;;;4.80;99.90;;;;;;4884812;29;20273;-73
2023/04/08 12:36:22;;;;;;;15.33;13.60;;;4.80;99.90;;;;;;4884511;29;20214;-76
2023/04/08 12:38:52;;;;;;;13.93;12.43;;;4.90;99.90;;;;;;4884497;29;20222;-75
2023/04/08 12:41:20;;;;;;;14.50;13.00;;;4.90;99.90;;;;;;4884629;29;20253;-75
2023/04/08 12:43:48;;;;;;;14.77;12.90;;;4.90;99.90;;;;;;4884046;29;20304;-74
2023/04/08 12:46:16;;;;;;;14.73;12.50;;;4.90;99.90;;;;;;4884485;29;20504;-74
2023/04/08 12:48:44;;;;;;;14.83;13.23;;;5.00;99.90;;;;;;4884408;29;20293;-73
2023/04/08 12:51:14;;;;;;;13.23;11.80;;;5.00;99.90;;;;;;4884130;29;20770;-76